Time;durP1;ratioP1;P1;durP2;ratioP2;P2;SDS_P1;SDS_P2;PMS_P1;PMS_P2;Temp;Humidity;BMP_temperature;BMP_pressure;BME280_temperature;BME280_humidity;BME280_pressure;Samples;Min_cycle;Max_cycle;Signal;HPM_P1;HPM_P2
2022/03/23 00:00:38;;;;;;;39.13;21.98;;;;;;;10.08;65.69;103155.72;5111158;27;20413;-79
2022/03/23 00:03:03;;;;;;;36.67;21.05;;;;;;;10.06;65.95;103145.25;5107953;27;20055;-79
2022/03/23 00:05:29;;;;;;;36.38;21.83;;;;;;;10.02;65.91;103146.09;5115534;28;20042;-79
2022/03/23 00:07:55;;;;;;;33.35;19.95;;;;;;;10.01;65.84;103146.13;5080511;28;20349;-79
2022/03/23 00:10:20;;;;;;;35.63;21.80;;;;;;;9.98;65.88;103153.09;5098498;27;20088;-79
2022/03/23 00:12:46;;;;;;;36.60;21.75;;;;;;;9.96;66.00;103148.75;5121054;27;20023;-79
2022/03/23 00:15:12;;;;;;;34.47;20.00;;;;;;;9.93;65.87;103144.41;5087077;27;20456;-79
2022/03/23 00:17:39;;;;;;;34.67;20.75;;;;;;;9.91;66.03;103147.88;5090661;28;20040;-79
2022/03/23 00:20:05;;;;;;;32.42;21.05;;;;;;;9.89;66.23;103153.09;5102692;27;20038;-79
2022/03/23 00:22:31;;;;;;;33.65;22.10;;;;;;;9.86;65.90;103147.91;5089582;28;20063;-79
2022/03/23 00:24:57;;;;;;;36.35;20.73;;;;;;;9.83;65.76;103154.88;5099660;27;20067;-79
2022/03/23 00:27:23;;;;;;;36.00;20.25;;;;;;;9.78;66.23;103147.00;5101288;28;20039;-79
2022/03/23 00:29:49;;;;;;;32.45;19.63;;;;;;;9.75;65.95;103147.91;5095190;28;20106;-79
2022/03/23 00:32:14;;;;;;;36.33;20.90;;;;;;;9.72;66.22;103149.66;5116403;27;20240;-79
2022/03/23 00:34:40;;;;;;;36.75;20.58;;;;;;;9.69;66.14;103144.41;5116941;28;20262;-79
2022/03/23 00:37:06;;;;;;;36.40;21.23;;;;;;;9.66;66.29;103147.91;5118102;27;20111;-79
2022/03/23 00:39:31;;;;;;;34.22;20.15;;;;;;;9.62;66.17;103146.13;5099092;28;20028;-79
2022/03/23 00:41:57;;;;;;;36.67;21.08;;;;;;;9.57;66.36;103151.38;5084570;28;20193;-79
2022/03/23 00:44:23;;;;;;;33.78;19.63;;;;;;;9.53;66.39;103144.41;5120221;27;20243;-79
2022/03/23 00:46:49;;;;;;;36.30;20.10;;;;;;;9.50;66.46;103149.63;5116790;27;20091;-79
2022/03/23 00:49:14;;;;;;;33.78;20.35;;;;;;;9.46;66.78;103140.03;5116843;28;20047;-79
2022/03/23 00:51:40;;;;;;;34.53;20.30;;;;;;;9.43;66.37;103142.66;5100163;28;20035;-79
2022/03/23 00:54:05;;;;;;;33.03;20.73;;;;;;;9.39;66.68;103136.53;5118271;28;20135;-79
2022/03/23 00:56:31;;;;;;;34.00;21.13;;;;;;;9.37;66.64;103135.69;5108010;27;20310;-79
2022/03/23 00:58:56;;;;;;;38.30;21.30;;;;;;;9.35;66.77;103139.13;5139301;27;20047;-79
2022/03/23 01:01:22;;;;;;;34.22;20.90;;;;;;;9.33;66.82;103143.50;5131622;27;20036;-79
2022/03/23 01:03:47;;;;;;;35.90;20.65;;;;;;;9.31;66.75;103140.00;5115798;28;20114;-79
2022/03/23 01:06:14;;;;;;;38.45;21.63;;;;;;;9.29;66.78;103142.63;5088851;27;20035;-79
2022/03/23 01:08:40;;;;;;;38.50;20.67;;;;;;;9.28;66.85;103142.63;5110905;28;20212;-79
2022/03/23 01:11:05;;;;;;;40.88;22.23;;;;;;;9.25;67.03;103140.88;5122630;27;20374;-78
2022/03/23 01:13:31;;;;;;;34.85;21.33;;;;;;;9.23;66.84;103138.25;5085695;27;20339;-79
2022/03/23 01:15:57;;;;;;;34.88;20.73;;;;;;;9.21;66.87;103136.53;5135936;27;20026;-78
2022/03/23 01:18:22;;;;;;;34.08;19.83;;;;;;;9.20;67.09;103137.38;5117352;28;20062;-78
2022/03/23 01:20:47;;;;;;;36.47;20.00;;;;;;;9.18;67.16;103139.13;5119264;27;20035;-79
2022/03/23 01:23:13;;;;;;;36.38;21.08;;;;;;;9.15;67.14;103141.72;5100640;28;20387;-79
2022/03/23 01:25:38;;;;;;;33.90;20.92;;;;;;;9.13;67.30;103136.50;5099526;28;20024;-79
2022/03/23 01:28:05;;;;;;;35.47;20.10;;;;;;;9.11;67.24;103133.00;5115725;27;20042;-78
2022/03/23 01:30:30;;;;;;;33.95;20.58;;;;;;;9.10;67.29;103135.63;5069539;27;20031;-78
2022/03/23 01:32:55;;;;;;;39.45;21.85;;;;;;;9.07;67.31;103130.41;5124515;27;20104;-79
2022/03/23 01:35:21;;;;;;;34.47;21.25;;;;;;;9.04;67.34;103123.44;5101662;28;20028;-79
2022/03/23 01:37:46;;;;;;;34.47;20.25;;;;;;;9.00;67.40;103121.66;5102583;28;20050;-79
2022/03/23 01:40:12;;;;;;;36.83;20.17;;;;;;;8.98;67.25;103126.88;5121600;28;20049;-79
2022/03/23 01:42:39;;;;;;;33.85;20.67;;;;;;;8.96;67.22;103127.75;5103099;28;20077;-79
2022/03/23 01:45:06;;;;;;;37.17;20.45;;;;;;;8.93;67.41;103123.41;5123247;27;20026;-78
2022/03/23 01:47:33;;;;;;;35.88;20.70;;;;;;;8.90;67.40;103122.53;5140447;27;20450;-79
2022/03/23 01:49:58;;;;;;;38.92;21.15;;;;;;;8.87;67.32;103118.13;5123404;27;20233;-79
2022/03/23 01:52:27;;;;;;;38.63;20.92;;;;;;;8.85;67.41;103122.50;5130317;27;20039;-79
2022/03/23 01:54:53;;;;;;;34.55;20.40;;;;;;;8.81;67.44;103121.59;5133650;27;20084;-79
2022/03/23 01:57:20;;;;;;;35.17;20.30;;;;;;;8.79;67.78;103119.88;5127671;27;20027;-79
2022/03/23 01:59:46;;;;;;;36.08;21.13;;;;;;;8.76;67.65;103114.63;5139770;27;20076;-79
2022/03/23 02:02:11;;;;;;;35.15;20.90;;;;;;;8.75;67.79;103115.47;5098307;27;20031;-79
2022/03/23 02:04:38;;;;;;;35.58;19.42;;;;;;;8.75;67.35;103120.72;5139500;27;20331;-79
2022/03/23 02:07:04;;;;;;;31.98;20.70;;;;;;;8.73;67.56;103114.59;5109420;28;20334;-79
2022/03/23 02:09:31;;;;;;;38.53;21.58;;;;;;;8.72;67.57;103116.34;5090307;27;20272;-79
2022/03/23 02:11:56;;;;;;;37.40;21.23;;;;;;;8.70;67.71;103112.00;5120905;27;20031;-79
2022/03/23 02:14:22;;;;;;;34.78;20.48;;;;;;;8.69;67.60;103118.94;5115363;28;20114;-79
2022/03/23 02:16:52;;;;;;;40.05;22.08;;;;;;;8.68;67.62;103122.44;5118637;27;20023;-79
2022/03/23 02:19:18;;;;;;;33.65;20.45;;;;;;;8.65;67.48;103115.44;5130960;27;20046;-79
2022/03/23 02:21:53;;;;;;;32.20;20.23;;;;;;;8.63;67.49;103118.94;5120361;28;20023;-79
2022/03/23 02:24:23;;;;;;;35.90;21.13;;;;;;;8.61;67.60;103116.31;5138710;27;20035;-79
2022/03/23 02:26:50;;;;;;;36.20;19.60;;;;;;;8.58;67.50;103112.81;5118662;27;20306;-79
2022/03/23 02:29:15;;;;;;;37.42;21.15;;;;;;;8.55;67.66;103113.69;5117933;28;20057;-79
2022/03/23 02:31:41;;;;;;;36.17;19.27;;;;;;;8.52;67.73;103111.06;5099246;28;20274;-79
2022/03/23 02:34:06;;;;;;;36.00;20.52;;;;;;;8.50;67.64;103119.75;5090728;28;20343;-79
2022/03/23 02:36:31;;;;;;;35.45;20.25;;;;;;;8.47;67.65;103114.50;5117678;28;20212;-79
2022/03/23 02:38:57;;;;;;;39.90;21.38;;;;;;;8.43;67.84;103108.41;5101186;27;20039;-79
2022/03/23 02:41:22;;;;;;;37.33;20.98;;;;;;;8.40;67.67;103113.56;5105915;28;20035;-79
2022/03/23 02:43:48;;;;;;;39.05;20.42;;;;;;;8.38;67.84;103116.16;5118089;28;20323;-79
2022/03/23 02:46:16;;;;;;;31.65;19.98;;;;;;;8.35;67.84;103112.66;5091910;28;20035;-79
2022/03/23 02:48:42;;;;;;;32.88;19.80;;;;;;;8.33;67.79;103112.69;5092858;28;20235;-79
2022/03/23 02:51:08;;;;;;;36.63;20.50;;;;;;;8.31;67.80;103110.91;5099905;28;20269;-79
2022/03/23 03:02:25;;;;;;;31.80;18.45;;;;;;;8.17;68.14;103118.69;5121683;27;20345;-79
2022/03/23 03:04:51;;;;;;;36.03;19.63;;;;;;;8.14;68.17;103116.91;5130350;28;20050;-79
2022/03/23 03:07:18;;;;;;;32.85;18.75;;;;;;;8.12;68.34;103120.41;5133679;28;20112;-79
2022/03/23 03:09:43;;;;;;;33.10;19.98;;;;;;;8.07;68.29;103112.53;5099585;28;20054;-79
2022/03/23 03:12:11;;;;;;;31.02;18.92;;;;;;;8.06;68.24;103122.09;5121676;28;20031;-79
2022/03/23 03:14:37;;;;;;;33.55;20.15;;;;;;;8.03;68.17;103115.97;5128128;27;20031;-79
2022/03/23 03:17:03;;;;;;;34.75;19.15;;;;;;;8.02;68.28;103119.44;5121939;28;20078;-79
2022/03/23 03:19:28;;;;;;;37.25;19.33;;;;;;;8.00;68.41;103116.81;5103970;28;20035;-79
2022/03/23 03:21:54;;;;;;;33.53;19.42;;;;;;;7.99;68.41;103119.44;5093645;28;20419;-79
2022/03/23 03:24:20;;;;;;;32.42;20.17;;;;;;;7.97;68.39;103124.66;5115011;27;20342;-79
2022/03/23 03:26:50;;;;;;;33.65;21.25;;;;;;;7.96;68.39;103120.28;5104144;28;20210;-79
2022/03/23 03:29:16;;;;;;;34.35;19.33;;;;;;;7.94;68.41;103121.16;5128369;27;20050;-79
2022/03/23 03:31:41;;;;;;;36.78;20.42;;;;;;;7.92;68.46;103121.13;5103054;28;20331;-79
2022/03/23 03:34:07;;;;;;;32.67;20.88;;;;;;;7.92;68.43;103120.25;5121981;28;20039;-79
2022/03/23 03:36:32;;;;;;;36.67;20.17;;;;;;;7.87;68.42;103121.09;5102670;28;20041;-80
2022/03/23 03:38:58;;;;;;;30.75;19.58;;;;;;;7.86;68.46;103121.97;5086722;28;20035;-79
2022/03/23 03:41:24;;;;;;;38.83;21.15;;;;;;;7.84;68.64;103122.78;5121426;27;20087;-79
2022/03/23 03:43:49;;;;;;;35.40;19.90;;;;;;;7.82;68.55;103122.81;5087711;28;20040;-79
2022/03/23 03:46:15;;;;;;;33.28;20.10;;;;;;;7.80;68.56;103121.91;5103171;28;20093;-79
2022/03/23 03:48:40;;;;;;;33.90;20.65;;;;;;;7.79;68.63;103119.31;5121390;27;20111;-79
2022/03/23 03:51:08;;;;;;;33.72;20.67;;;;;;;7.76;68.51;103125.34;5121410;28;20028;-80
2022/03/23 03:53:34;;;;;;;35.85;20.20;;;;;;;7.75;68.69;103125.34;5096929;28;20350;-79
2022/03/23 03:55:59;;;;;;;36.58;20.05;;;;;;;7.72;68.58;103123.59;5099308;28;20019;-79
2022/03/23 03:58:25;;;;;;;30.90;18.65;;;;;;;7.69;68.59;103126.16;5102361;28;20040;-79
2022/03/23 04:00:51;;;;;;;33.05;21.10;;;;;;;7.67;68.57;103127.91;5130645;27;20031;-79
2022/03/23 04:03:16;;;;;;;34.60;19.40;;;;;;;7.65;68.63;103132.22;5121825;27;20023;-79
2022/03/23 04:05:42;;;;;;;31.10;20.23;;;;;;;7.62;68.93;103132.19;5102464;28;20326;-79
2022/03/23 04:08:08;;;;;;;30.90;18.35;;;;;;;7.59;68.79;103125.22;5121263;28;20122;-79
2022/03/23 04:10:34;;;;;;;32.33;18.23;;;;;;;7.57;69.05;103132.19;5121886;27;20043;-79
2022/03/23 04:13:00;;;;;;;33.40;19.60;;;;;;;7.56;69.04;103137.38;5123578;27;20023;-79
2022/03/23 04:15:26;;;;;;;33.50;19.42;;;;;;;7.54;68.99;103139.97;5100404;28;20061;-79
2022/03/23 04:17:55;;;;;;;37.35;20.58;;;;;;;7.52;69.15;103138.22;5103047;28;20030;-79
2022/03/23 04:20:24;;;;;;;32.20;19.88;;;;;;;7.48;68.92;103135.56;5116535;28;20374;-79
2022/03/23 04:22:50;;;;;;;35.13;20.60;;;;;;;7.46;68.84;103134.69;5125255;28;20046;-79
2022/03/23 04:25:16;;;;;;;33.28;19.65;;;;;;;7.45;68.86;103139.88;5130262;27;20032;-79
2022/03/23 04:27:52;;;;;;;34.28;19.58;;;;;;;7.42;68.85;103137.22;5125084;27;20036;-79
2022/03/23 04:30:19;;;;;;;38.17;19.15;;;;;;;7.40;68.82;103138.97;5115166;27;20035;-79
2022/03/23 04:32:47;;;;;;;32.92;19.90;;;;;;;7.36;68.84;103143.28;5105159;28;20064;-79
2022/03/23 04:35:16;;;;;;;33.65;21.08;;;;;;;7.35;69.03;103138.03;5134767;27;20065;-79
2022/03/23 04:37:42;;;;;;;34.13;20.48;;;;;;;7.32;69.07;103138.88;5123073;27;20084;-79
2022/03/23 04:40:09;;;;;;;34.72;19.77;;;;;;;7.29;69.01;103134.53;5129717;27;20086;-79
2022/03/23 04:42:36;;;;;;;32.05;19.92;;;;;;;7.26;69.03;103144.06;5101756;28;20027;-79
2022/03/23 04:45:02;;;;;;;33.55;21.15;;;;;;;7.24;69.09;103144.03;5130239;27;20054;-79
2022/03/23 04:47:28;;;;;;;31.52;19.80;;;;;;;7.21;69.18;103144.00;5120359;28;20050;-79
2022/03/23 04:49:53;;;;;;;35.97;20.15;;;;;;;7.19;69.20;103144.84;5121769;27;20028;-79
2022/03/23 04:52:19;;;;;;;38.50;19.40;;;;;;;7.17;69.01;103144.84;5089465;28;20309;-79
2022/03/23 04:54:44;;;;;;;41.58;19.60;;;;;;;7.15;69.25;103145.66;5108728;27;20039;-79
2022/03/23 04:57:10;;;;;;;36.55;21.27;;;;;;;7.14;69.16;103147.41;5122685;27;20095;-79
2022/03/23 04:59:35;;;;;;;36.15;20.73;;;;;;;7.11;69.06;103150.84;5106436;27;20302;-79
2022/03/23 05:02:01;;;;;;;34.83;19.80;;;;;;;7.08;69.32;103152.56;5141227;27;20679;-79
2022/03/23 05:04:26;;;;;;;37.25;21.13;;;;;;;7.06;69.18;103157.75;5138003;27;20076;-79
2022/03/23 05:06:52;;;;;;;35.33;19.98;;;;;;;7.05;69.44;103152.50;5105728;27;20050;-79
2022/03/23 05:09:17;;;;;;;34.05;19.83;;;;;;;7.01;69.27;103154.22;5089054;27;20055;-79
2022/03/23 05:11:43;;;;;;;33.08;20.05;;;;;;;6.99;69.42;103155.94;5068258;28;20266;-79
2022/03/23 05:14:08;;;;;;;34.25;19.88;;;;;;;6.96;69.45;103155.88;5084877;28;20047;-79
2022/03/23 05:16:33;;;;;;;33.40;20.58;;;;;;;6.95;69.51;103161.97;5110638;27;20089;-79
2022/03/23 05:18:59;;;;;;;33.85;19.58;;;;;;;6.95;69.57;103161.97;5135711;27;20378;-79
2022/03/23 05:21:24;;;;;;;36.33;20.48;;;;;;;6.92;69.64;103162.78;5099597;27;20387;-79
2022/03/23 05:23:50;;;;;;;33.30;20.50;;;;;;;6.91;69.31;103154.94;5138859;27;20027;-79
2022/03/23 05:26:15;;;;;;;36.55;21.58;;;;;;;6.89;69.50;103161.88;5069433;28;20331;-79
2022/03/23 05:28:41;;;;;;;33.92;20.00;;;;;;;6.86;69.62;103157.50;5091855;27;20027;-79
2022/03/23 05:31:06;;;;;;;34.72;21.00;;;;;;;6.85;69.67;103167.91;5084312;28;20062;-79
2022/03/23 05:33:32;;;;;;;39.08;21.88;;;;;;;6.82;69.59;103163.56;5117116;28;20087;-79
2022/03/23 05:35:57;;;;;;;34.63;21.00;;;;;;;6.81;69.75;103169.59;5122041;27;20307;-79
2022/03/23 05:38:23;;;;;;;37.70;20.17;;;;;;;6.78;69.76;103166.09;5117536;28;20051;-79
2022/03/23 05:40:48;;;;;;;37.30;21.08;;;;;;;6.76;69.88;103167.81;5107451;27;20027;-79
2022/03/23 05:43:14;;;;;;;34.55;20.25;;;;;;;6.74;69.77;103165.16;5066210;28;20034;-79
2022/03/23 05:45:39;;;;;;;35.90;20.95;;;;;;;6.72;69.80;103162.53;5118108;27;20095;-79
2022/03/23 05:48:05;;;;;;;36.97;21.55;;;;;;;6.71;69.72;103162.53;5099777;28;20032;-79
2022/03/23 05:50:31;;;;;;;35.45;20.70;;;;;;;6.69;69.86;103165.13;5117807;27;20148;-79
2022/03/23 05:52:56;;;;;;;35.30;20.02;;;;;;;6.69;70.00;103165.13;5117801;28;20369;-79
2022/03/23 05:55:22;;;;;;;40.28;20.45;;;;;;;6.68;69.90;103165.09;5097026;28;20032;-79
2022/03/23 05:57:47;;;;;;;39.45;21.13;;;;;;;6.67;70.09;103171.16;5073992;28;20393;-79
2022/03/23 06:00:13;;;;;;;36.05;21.20;;;;;;;6.67;70.08;103173.75;5098407;28;20054;-79
2022/03/23 06:02:40;;;;;;;36.70;21.65;;;;;;;6.66;70.00;103174.63;5112694;28;20043;-79
2022/03/23 06:05:07;;;;;;;34.67;20.20;;;;;;;6.65;69.98;103176.34;5099133;28;20335;-79
2022/03/23 06:07:34;;;;;;;36.95;20.63;;;;;;;6.65;70.10;103178.94;5135399;27;20046;-79
2022/03/23 06:10:00;;;;;;;36.42;19.98;;;;;;;6.65;70.19;103175.47;5128426;27;20081;-79
2022/03/23 06:12:25;;;;;;;41.60;21.80;;;;;;;6.63;70.20;103170.25;5083857;27;20031;-79
2022/03/23 06:14:51;;;;;;;34.15;19.67;;;;;;;6.64;70.40;103174.59;5088698;27;20269;-79
2022/03/23 06:17:16;;;;;;;40.92;22.60;;;;;;;6.65;70.28;103176.34;5121597;27;20347;-79
2022/03/23 06:19:42;;;;;;;33.85;19.00;;;;;;;6.67;70.61;103177.22;5101958;27;20031;-79
2022/03/23 06:22:07;;;;;;;37.25;21.77;;;;;;;6.68;70.58;103184.19;5102534;28;20036;-79
2022/03/23 06:24:33;;;;;;;41.35;21.65;;;;;;;6.70;70.32;103185.09;5118273;27;20035;-79
2022/03/23 06:26:59;;;;;;;32.92;19.17;;;;;;;6.72;70.48;103185.13;5110975;28;20077;-79
2022/03/23 06:29:24;;;;;;;36.75;19.42;;;;;;;6.73;70.46;103184.25;5117439;27;20257;-79
2022/03/23 06:31:51;;;;;;;30.90;18.75;;;;;;;6.74;70.34;103188.59;5101058;27;20065;-79
2022/03/23 06:34:16;;;;;;;34.97;19.58;;;;;;;6.76;70.40;103196.44;5093163;28;20065;-79
2022/03/23 06:36:42;;;;;;;34.88;20.17;;;;;;;6.75;70.61;103192.97;5104522;27;20038;-79
2022/03/23 06:39:07;;;;;;;36.65;20.25;;;;;;;6.75;70.59;103192.97;5118084;27;20027;-79
2022/03/23 06:41:33;;;;;;;33.88;20.25;;;;;;;6.75;70.59;103199.91;5097899;28;20338;-79
2022/03/23 06:43:59;;;;;;;34.63;19.55;;;;;;;6.75;70.60;103197.28;5116188;28;20266;-79
2022/03/23 06:46:24;;;;;;;33.10;19.33;;;;;;;6.75;70.61;103194.69;5087176;27;20034;-79
2022/03/23 06:48:50;;;;;;;36.28;19.52;;;;;;;6.75;70.63;103198.19;5086359;27;20027;-79
2022/03/23 06:51:16;;;;;;;33.97;18.98;;;;;;;6.77;70.58;103190.38;5083379;28;20101;-79
2022/03/23 06:53:42;;;;;;;36.92;19.60;;;;;;;6.78;70.84;103190.38;5116852;28;20051;-79
2022/03/23 06:56:08;;;;;;;37.05;19.33;;;;;;;6.79;70.91;103199.97;5115865;28;20239;-79
2022/03/23 06:58:34;;;;;;;36.03;19.55;;;;;;;6.80;70.90;103196.50;5113332;28;20429;-79
2022/03/23 07:01:00;;;;;;;35.22;19.08;;;;;;;6.82;70.93;103199.13;5098337;28;20007;-79
2022/03/23 07:03:25;;;;;;;33.10;18.20;;;;;;;6.84;71.19;103202.63;5074475;28;20373;-79
2022/03/23 07:05:51;;;;;;;27.67;16.55;;;;;;;6.85;71.01;103207.84;5081303;28;20039;-79
2022/03/23 07:11:01;;;;;;;25.83;17.02;;;;;;;6.92;70.67;103201.88;5121597;28;20047;-79
2022/03/23 07:13:27;;;;;;;25.98;16.48;;;;;;;6.95;70.81;103206.25;5076700;28;20035;-79
2022/03/23 07:15:53;;;;;;;31.58;17.25;;;;;;;6.99;71.07;103209.78;5082217;28;20032;-80
2022/03/23 07:18:18;;;;;;;25.40;16.20;;;;;;;7.00;71.13;103207.16;5095032;28;20023;-79
2022/03/23 07:20:44;;;;;;;27.08;15.07;;;;;;;7.03;71.08;103217.63;5098076;28;20040;-79
2022/03/23 07:23:09;;;;;;;25.50;14.25;;;;;;;7.07;70.96;103219.41;5127206;28;20087;-79
2022/03/23 07:25:35;;;;;;;27.70;16.20;;;;;;;7.09;71.04;103216.81;5117924;28;20330;-79
2022/03/23 07:28:02;;;;;;;34.45;19.70;;;;;;;7.13;71.24;103220.34;5112055;28;20244;-79
2022/03/23 07:30:29;;;;;;;27.23;17.30;;;;;;;7.14;71.82;103220.38;5097213;28;20059;-79
2022/03/23 07:32:54;;;;;;;32.95;19.27;;;;;;;7.17;71.99;103227.31;5094389;28;20128;-79
2022/03/23 07:35:21;;;;;;;36.78;19.88;;;;;;;7.19;72.05;103226.50;5082431;28;20040;-79
2022/03/23 07:37:47;;;;;;;32.78;18.33;;;;;;;7.27;72.42;103221.38;5112907;28;20247;-79
2022/03/23 07:40:12;;;;;;;42.85;22.60;;;;;;;7.32;73.01;103222.31;5111020;28;20055;-79
2022/03/23 07:42:38;;;;;;;43.50;21.90;;;;;;;7.32;73.23;103224.91;5092664;28;20293;-79
2022/03/23 07:45:05;;;;;;;46.75;23.23;;;;;;;7.33;73.64;103217.97;5079137;28;20040;-79
2022/03/23 07:47:31;;;;;;;45.72;22.75;;;;;;;7.34;73.70;103223.19;5087673;28;20024;-79
2022/03/23 07:49:56;;;;;;;37.28;19.55;;;;;;;7.38;73.84;103222.38;5112924;28;20124;-79
2022/03/23 07:52:22;;;;;;;39.83;20.67;;;;;;;7.45;73.51;103232.00;5110368;28;20040;-79
2022/03/23 07:54:47;;;;;;;41.97;22.08;;;;;;;7.44;73.87;103232.88;5112318;28;20065;-79
2022/03/23 07:57:13;;;;;;;35.15;19.90;;;;;;;7.48;73.68;103232.03;5094737;27;20036;-79
2022/03/23 07:59:39;;;;;;;39.45;21.25;;;;;;;7.53;73.69;103236.41;5115983;27;20031;-79
2022/03/23 08:02:05;;;;;;;40.40;20.98;;;;;;;7.61;73.70;103243.47;5114645;28;20047;-79
2022/03/23 08:04:30;;;;;;;37.67;22.00;;;;;;;7.65;73.57;103247.84;5097685;28;20051;-79
2022/03/23 08:06:55;;;;;;;36.45;20.40;;;;;;;7.68;73.62;103240.06;5113984;27;20046;-79
2022/03/23 08:09:21;;;;;;;38.05;20.77;;;;;;;7.72;73.58;103245.31;5124158;27;20051;-78
2022/03/23 08:11:46;;;;;;;36.53;21.58;;;;;;;7.81;72.84;103241.06;5080628;28;20069;-79
2022/03/23 08:14:12;;;;;;;35.47;19.85;;;;;;;7.86;72.50;103243.72;5097160;28;20092;-79
2022/03/23 08:16:37;;;;;;;33.53;20.15;;;;;;;7.93;72.23;103240.31;5094136;28;20219;-79
2022/03/23 08:19:02;;;;;;;36.67;22.02;;;;;;;8.00;71.55;103243.81;5120379;27;20110;-79
2022/03/23 08:21:28;;;;;;;44.00;22.83;;;;;;;8.06;70.40;103247.38;5082176;28;20542;-79
2022/03/23 08:23:55;;;;;;;40.60;21.17;;;;;;;8.10;70.04;103243.06;5118099;27;20061;-79
2022/03/23 08:26:22;;;;;;;38.92;21.45;;;;;;;8.17;69.33;103243.97;5095393;28;20031;-78
2022/03/23 08:28:47;;;;;;;38.78;21.42;;;;;;;8.22;69.19;103242.25;5102225;28;20051;-79
2022/03/23 08:31:13;;;;;;;41.45;21.10;;;;;;;8.27;68.31;103243.16;5080083;28;20031;-79
2022/03/23 08:33:39;;;;;;;42.83;21.20;;;;;;;8.34;67.91;103238.88;5118600;27;20097;-79
2022/03/23 08:36:07;;;;;;;45.03;21.00;;;;;;;8.39;67.49;103235.44;5118156;27;20054;-79
2022/03/23 08:38:32;;;;;;;31.52;18.85;;;;;;;8.46;67.10;103241.63;5124985;27;20042;-79
2022/03/23 08:40:58;;;;;;;40.85;21.13;;;;;;;8.51;66.63;103239.00;5083622;28;20321;-79
2022/03/23 08:43:24;;;;;;;31.75;20.45;;;;;;;8.55;66.50;103235.56;5133310;27;20039;-79
2022/03/23 08:45:49;;;;;;;38.83;20.80;;;;;;;8.57;66.52;103239.94;5102410;27;20016;-79
2022/03/23 08:48:17;;;;;;;38.72;19.95;;;;;;;8.60;66.31;103232.13;5130226;27;20038;-79
2022/03/23 08:50:43;;;;;;;39.37;21.20;;;;;;;8.63;65.53;103233.88;5099515;27;20072;-79
2022/03/23 08:53:08;;;;;;;37.55;20.50;;;;;;;8.67;65.59;103235.63;5096563;27;20032;-79
2022/03/23 08:55:34;;;;;;;42.28;21.25;;;;;;;8.74;65.71;103236.53;5095889;28;20115;-79
2022/03/23 08:57:59;;;;;;;42.33;20.83;;;;;;;8.85;65.26;103237.47;5127690;27;20066;-79
2022/03/23 09:00:26;;;;;;;37.30;21.00;;;;;;;8.91;64.69;103231.41;5100339;28;20024;-79
2022/03/23 09:02:52;;;;;;;38.28;20.98;;;;;;;8.99;64.74;103237.53;5082357;27;20259;-79
2022/03/23 09:05:19;;;;;;;36.40;20.85;;;;;;;9.00;64.82;103240.16;5080888;28;20044;-79
2022/03/23 09:07:44;;;;;;;39.17;21.92;;;;;;;9.06;64.64;103241.03;5084081;28;20374;-79
2022/03/23 09:10:13;;;;;;;35.40;19.73;;;;;;;9.11;64.39;103245.41;5130245;27;20036;-79
2022/03/23 09:12:39;;;;;;;35.83;21.73;;;;;;;9.13;63.92;103243.69;5114269;28;20039;-79
2022/03/23 09:15:06;;;;;;;43.03;21.40;;;;;;;9.17;62.39;103241.97;5102828;27;20043;-79
2022/03/23 09:17:32;;;;;;;35.25;20.02;;;;;;;9.23;62.21;103249.81;5097130;28;20571;-79
2022/03/23 09:20:00;;;;;;;31.70;17.85;;;;;;;9.28;62.04;103249.81;5094904;27;20032;-79
2022/03/23 09:22:26;;;;;;;36.30;20.07;;;;;;;9.36;61.80;103243.75;5119528;27;20107;-79
2022/03/23 09:24:52;;;;;;;36.47;20.45;;;;;;;9.42;61.88;103250.75;5121521;27;20059;-79
2022/03/23 09:27:17;;;;;;;34.70;20.13;;;;;;;9.50;61.37;103250.78;5114250;28;20635;-79
2022/03/23 09:29:44;;;;;;;37.38;20.42;;;;;;;9.52;61.59;103244.66;5101005;28;20084;-79
2022/03/23 09:32:12;;;;;;;30.98;19.50;;;;;;;9.59;61.54;103251.66;5086246;28;20064;-79
2022/03/23 09:34:38;;;;;;;28.40;18.63;;;;;;;9.62;61.87;103237.69;5081892;28;20036;-79
2022/03/23 09:39:48;;;;;;;31.45;19.70;;;;;;;9.77;62.16;103239.50;5117424;27;20189;-79
2022/03/23 09:42:17;;;;;;;34.67;19.00;;;;;;;9.83;61.98;103244.72;5111798;28;20043;-79
2022/03/23 09:44:44;;;;;;;;;;;;;;;9.92;62.37;103246.47;5117956;27;20076;-79
2022/03/23 09:47:10;;;;;;;36.03;18.85;;;;;;;9.96;62.67;103253.44;5109902;28;19915;-79
2022/03/23 09:49:35;;;;;;;33.97;18.40;;;;;;;10.02;62.67;103253.44;5097060;27;20034;-79
2022/03/23 09:52:01;;;;;;;36.92;20.23;;;;;;;10.12;61.70;103247.34;5098490;28;20051;-79
2022/03/23 09:54:27;;;;;;;36.47;20.98;;;;;;;10.19;60.97;103251.72;5098748;28;20368;-79
2022/03/23 09:56:52;;;;;;;37.67;20.80;;;;;;;10.26;60.96;103249.06;5080281;28;20039;-79
2022/03/23 09:59:18;;;;;;;33.05;19.60;;;;;;;10.35;59.94;103255.22;5072003;28;20069;-79
2022/03/23 10:01:46;;;;;;;31.00;18.52;;;;;;;10.45;59.68;103249.97;5131089;27;20035;-79
2022/03/23 10:04:18;;;;;;;36.85;20.33;;;;;;;10.52;59.14;103252.56;5120089;27;20352;-79
2022/03/23 10:07:08;;;;;;;35.30;20.95;;;;;;;10.60;59.33;103254.31;5103648;27;20030;-79
2022/03/23 10:10:18;;;;;;;36.53;21.00;;;;;;;10.66;59.83;103256.91;5123074;27;20510;-79
2022/03/23 10:13:21;;;;;;;33.45;19.80;;;;;;;10.69;60.10;103252.53;5104984;27;20035;-79
2022/03/23 10:16:22;;;;;;;40.25;20.80;;;;;;;10.76;59.77;103250.78;5097587;28;20051;-79
2022/03/23 10:18:55;;;;;;;39.00;21.98;;;;;;;10.82;60.23;103252.50;5085063;27;20382;-79
2022/03/23 10:21:48;;;;;;;36.17;21.15;;;;;;;10.94;60.65;103248.06;5109450;27;20319;-79
2022/03/23 10:24:14;;;;;;;39.63;21.52;;;;;;;11.04;60.00;103246.31;5089380;28;20917;-79
2022/03/23 10:26:42;;;;;;;37.15;21.60;;;;;;;11.11;59.69;103247.13;5093152;27;20118;-79
2022/03/23 10:29:22;;;;;;;35.90;21.67;;;;;;;11.22;59.41;103240.09;5115073;27;20039;-79
2022/03/23 10:32:05;;;;;;;35.38;21.08;;;;;;;11.33;59.70;103243.53;5107067;27;20039;-79
2022/03/23 10:34:56;;;;;;;36.72;20.92;;;;;;;11.44;59.54;103239.97;5127501;27;20031;-79
2022/03/23 10:37:33;;;;;;;36.55;21.05;;;;;;;11.48;58.31;103234.72;5120727;27;20110;-79
2022/03/23 10:40:18;;;;;;;37.60;20.45;;;;;;;11.53;58.83;103235.56;5120430;27;20073;-79
2022/03/23 10:42:48;;;;;;;35.90;22.25;;;;;;;11.60;58.71;103236.38;5107065;28;20283;-79
2022/03/23 10:45:21;;;;;;;35.08;21.85;;;;;;;11.65;58.46;103236.34;5091380;28;20049;-79
2022/03/23 10:47:47;;;;;;;36.35;21.45;;;;;;;11.73;58.00;103234.53;5098370;28;20307;-79
2022/03/23 10:50:18;;;;;;;40.42;21.80;;;;;;;11.80;58.05;103233.59;5107123;27;20023;-79
2022/03/23 10:53:04;;;;;;;37.08;21.05;;;;;;;11.88;58.32;103233.56;5123922;27;20386;-79
2022/03/23 10:55:35;;;;;;;38.75;21.85;;;;;;;11.99;57.46;103231.75;5126158;27;20035;-79
2022/03/23 10:58:00;;;;;;;34.03;21.65;;;;;;;12.09;57.25;103228.13;5100405;27;20029;-79
2022/03/23 11:00:30;;;;;;;33.67;21.33;;;;;;;12.17;57.56;103229.81;5121562;27;20027;-78
2022/03/23 11:02:57;;;;;;;42.95;23.38;;;;;;;12.22;56.60;103234.13;5110783;28;20028;-78
2022/03/23 11:05:29;;;;;;;36.58;21.83;;;;;;;12.25;56.48;103235.88;5103284;27;20102;-78
2022/03/23 11:08:09;;;;;;;35.95;20.63;;;;;;;12.29;56.99;103230.56;5106564;28;20235;-78
2022/03/23 11:16:23;;;;;;;36.40;21.27;;;;;;;12.45;57.22;103231.28;5103551;28;20033;-78
2022/03/23 11:18:48;;;;;;;34.10;21.58;;;;;;;12.48;56.81;103233.91;5078533;28;20027;-78
2022/03/23 11:21:13;;;;;;;38.70;21.98;;;;;;;12.57;57.07;103229.41;5100346;28;20383;-78
2022/03/23 11:23:39;;;;;;;36.75;22.02;;;;;;;12.65;56.38;103230.22;5120152;28;20365;-79
2022/03/23 11:26:10;;;;;;;40.38;22.42;;;;;;;12.72;56.14;103231.88;5073078;28;20098;-79
2022/03/23 11:28:47;;;;;;;38.60;23.05;;;;;;;12.80;56.18;103235.28;5104349;28;20068;-79
2022/03/23 11:31:17;;;;;;;38.38;21.63;;;;;;;12.90;56.53;103222.03;5116217;28;20032;-78
2022/03/23 11:33:49;;;;;;;38.60;22.50;;;;;;;12.95;56.79;103228.09;5100288;28;20403;-79
2022/03/23 11:36:17;;;;;;;37.60;21.88;;;;;;;13.02;57.34;103229.75;5099323;27;20114;-78